Time;durP1;ratioP1;P1;durP2;ratioP2;P2;SDS_P1;SDS_P2;PMS_P1;PMS_P2;Temp;Humidity;BMP_temperature;BMP_pressure;BME280_temperature;BME280_humidity;BME280_pressure;Samples;Min_cycle;Max_cycle;Signal;HPM_P1;HPM_P2
2022/09/22 00:01:55;;;;;;;2.63;1.53;;;12.40;99.90;;;;;;5053158;28;20571;-73
2022/09/22 00:04:21;;;;;;;4.73;2.63;;;12.40;99.90;;;;;;5071373;28;20251;-73
2022/09/22 00:06:50;;;;;;;3.50;2.27;;;12.40;99.90;;;;;;5071273;28;20198;-73
2022/09/22 00:09:18;;;;;;;3.75;1.98;;;12.40;99.90;;;;;;5053116;28;20164;-73
2022/09/22 00:11:47;;;;;;;3.38;1.85;;;12.40;99.90;;;;;;5071047;28;20168;-73
2022/09/22 00:14:26;;;;;;;4.20;2.22;;;12.30;99.90;;;;;;5071319;28;20173;-73
2022/09/22 00:16:59;;;;;;;6.28;2.20;;;12.30;99.90;;;;;;5054347;28;20555;-73
2022/09/22 00:19:28;;;;;;;5.25;2.20;;;12.30;99.90;;;;;;5070892;28;20690;-72
2022/09/22 00:21:54;;;;;;;3.08;2.00;;;12.30;99.90;;;;;;5070872;28;20168;-72
2022/09/22 00:24:23;;;;;;;4.30;2.47;;;12.20;99.90;;;;;;5071014;28;20161;-73
2022/09/22 00:26:50;;;;;;;4.68;2.10;;;12.20;99.90;;;;;;5071001;28;20597;-73
2022/09/22 00:29:16;;;;;;;3.90;1.85;;;12.20;99.90;;;;;;5036481;28;20261;-73
2022/09/22 00:31:43;;;;;;;2.70;1.80;;;12.10;99.90;;;;;;5053097;28;20172;-73
2022/09/22 00:34:15;;;;;;;3.17;1.95;;;12.10;99.90;;;;;;5053057;28;20176;-73
2022/09/22 00:36:41;;;;;;;3.33;2.25;;;12.10;99.90;;;;;;5070816;28;20564;-74
2022/09/22 00:39:07;;;;;;;4.20;2.20;;;12.10;99.90;;;;;;5070854;28;20659;-74
2022/09/22 00:41:36;;;;;;;3.22;1.80;;;12.10;99.90;;;;;;5052627;28;20590;-74
2022/09/22 00:44:30;;;;;;;5.05;2.20;;;12.00;99.90;;;;;;5071207;28;20522;-74
2022/09/22 00:47:09;;;;;;;3.17;1.90;;;12.00;99.90;;;;;;5056567;28;20570;-74
2022/09/22 00:49:44;;;;;;;4.43;2.10;;;12.00;99.90;;;;;;5069450;22;20217;-76
2022/09/22 00:52:14;;;;;;;4.45;1.80;;;11.90;99.90;;;;;;5034424;28;20716;-76
2022/09/22 00:54:40;;;;;;;3.28;1.70;;;11.90;99.90;;;;;;5034847;28;20214;-76
2022/09/22 00:57:28;;;;;;;4.50;1.83;;;11.90;99.90;;;;;;5039052;28;20169;-76
2022/09/22 00:59:54;;;;;;;2.80;1.65;;;11.80;99.90;;;;;;5033933;28;20639;-76
2022/09/22 01:02:21;;;;;;;2.33;1.90;;;11.80;99.90;;;;;;5034261;28;20649;-76
2022/09/22 01:04:50;;;;;;;3.13;1.80;;;11.80;99.90;;;;;;5034318;28;20166;-76
2022/09/22 01:07:18;;;;;;;4.13;2.30;;;11.80;99.90;;;;;;5034349;28;20259;-77
2022/09/22 01:09:44;;;;;;;3.17;2.05;;;11.80;99.90;;;;;;5033965;28;20613;-76
2022/09/22 01:12:11;;;;;;;4.00;1.70;;;11.80;99.90;;;;;;5032815;28;20245;-76
2022/09/22 01:14:54;;;;;;;3.25;1.50;;;11.80;99.90;;;;;;5034072;28;20220;-76
2022/09/22 01:17:37;;;;;;;2.88;1.80;;;11.80;99.90;;;;;;5034213;28;20169;-76
2022/09/22 01:20:06;;;;;;;5.20;1.77;;;11.70;99.90;;;;;;5033723;28;20821;-76
2022/09/22 01:22:50;;;;;;;3.20;1.90;;;11.70;99.90;;;;;;5033850;28;20166;-76
2022/09/22 01:25:24;;;;;;;3.85;2.22;;;11.70;99.90;;;;;;5034018;28;20261;-76
2022/09/22 01:28:02;;;;;;;4.03;2.30;;;11.70;99.90;;;;;;5033927;28;20225;-76
2022/09/22 01:30:53;;;;;;;3.50;2.17;;;11.70;99.90;;;;;;5033558;28;20273;-76
2022/09/22 01:33:22;;;;;;;3.50;1.63;;;11.70;99.90;;;;;;5035738;28;20645;-76
2022/09/22 01:36:17;;;;;;;3.17;1.85;;;11.70;99.90;;;;;;5032646;28;20730;-77
2022/09/22 01:38:58;;;;;;;4.35;1.70;;;11.60;99.90;;;;;;5028537;28;20206;-76
2022/09/22 01:41:47;;;;;;;3.72;2.22;;;11.60;99.90;;;;;;5033285;28;20162;-76
2022/09/22 01:44:21;;;;;;;3.38;1.52;;;11.60;99.90;;;;;;5032497;28;20260;-77
2022/09/22 01:47:00;;;;;;;5.80;2.05;;;11.60;99.90;;;;;;5033720;28;20173;-77
2022/09/22 01:49:31;;;;;;;3.38;1.55;;;11.50;99.90;;;;;;5033102;28;20251;-76
2022/09/22 01:52:01;;;;;;;3.00;1.85;;;11.50;99.90;;;;;;5033410;28;20583;-76
2022/09/22 01:54:32;;;;;;;3.95;2.05;;;11.50;99.90;;;;;;5033550;28;20630;-76
2022/09/22 01:57:08;;;;;;;2.13;1.55;;;11.50;99.90;;;;;;5032765;28;20534;-77
2022/09/22 01:59:37;;;;;;;4.18;2.10;;;11.40;99.90;;;;;;5033060;28;20199;-76
2022/09/22 02:02:08;;;;;;;3.83;2.15;;;11.40;99.90;;;;;;5033060;28;20170;-77
2022/09/22 02:04:44;;;;;;;3.67;1.90;;;11.40;99.90;;;;;;5033343;28;20170;-76
2022/09/22 02:07:24;;;;;;;3.35;1.80;;;11.30;99.90;;;;;;5033264;28;20299;-77
2022/09/22 02:09:50;;;;;;;3.13;1.90;;;11.30;99.90;;;;;;5041071;28;20261;-76
2022/09/22 02:12:17;;;;;;;2.80;1.80;;;11.30;99.90;;;;;;5035056;28;20181;-76
2022/09/22 02:14:45;;;;;;;2.85;1.95;;;11.30;99.90;;;;;;5032949;28;20181;-77
2022/09/22 02:17:12;;;;;;;3.25;1.80;;;11.30;99.90;;;;;;5032989;28;20193;-77
2022/09/22 02:19:39;;;;;;;3.10;1.88;;;11.30;99.90;;;;;;5032614;28;20209;-76
2022/09/22 02:22:07;;;;;;;3.38;1.75;;;11.30;99.90;;;;;;5032784;28;20501;-76
2022/09/22 02:24:42;;;;;;;3.47;1.70;;;11.30;99.90;;;;;;5032804;28;20166;-76
2022/09/22 02:27:11;;;;;;;3.85;2.13;;;11.20;99.90;;;;;;5032856;28;20166;-77
2022/09/22 02:29:41;;;;;;;3.30;1.70;;;11.20;99.90;;;;;;5032420;28;20240;-76
2022/09/22 02:32:11;;;;;;;3.25;1.63;;;11.20;99.90;;;;;;5032601;28;20197;-76
2022/09/22 02:34:37;;;;;;;3.00;1.60;;;11.20;99.90;;;;;;5032808;28;20174;-77
2022/09/22 02:37:12;;;;;;;3.13;1.73;;;11.10;99.90;;;;;;5033326;28;20176;-78
2022/09/22 02:39:41;;;;;;;3.58;1.92;;;11.10;99.90;;;;;;5033157;28;20681;-79
2022/09/22 02:42:17;;;;;;;4.95;1.40;;;11.10;99.90;;;;;;5032952;28;20633;-77
2022/09/22 02:45:16;;;;;;;3.35;1.90;;;11.00;99.90;;;;;;5031577;28;20177;-76
2022/09/22 02:47:44;;;;;;;4.03;1.70;;;11.00;99.90;;;;;;5040704;28;20189;-77
2022/09/22 02:50:12;;;;;;;3.10;1.73;;;11.00;99.90;;;;;;5031922;28;20255;-77
2022/09/22 02:52:39;;;;;;;3.92;1.63;;;11.00;99.90;;;;;;5032270;28;20209;-76
2022/09/22 02:55:07;;;;;;;3.05;2.00;;;11.00;99.90;;;;;;5032332;28;20507;-77
2022/09/22 02:57:32;;;;;;;2.50;1.88;;;11.00;99.90;;;;;;5032387;28;20243;-77
2022/09/22 02:59:58;;;;;;;3.87;2.10;;;11.00;99.90;;;;;;5031756;28;20213;-77
2022/09/22 03:02:24;;;;;;;4.30;2.30;;;10.90;99.90;;;;;;5030759;28;20260;-77
2022/09/22 03:04:50;;;;;;;2.93;1.77;;;10.90;99.90;;;;;;5032056;28;20718;-76
2022/09/22 03:07:17;;;;;;;4.50;1.63;;;10.90;99.90;;;;;;5031447;28;20531;-76
2022/09/22 03:09:42;;;;;;;3.50;2.25;;;10.90;99.90;;;;;;5031923;28;20197;-77
2022/09/22 03:12:08;;;;;;;5.13;2.17;;;10.90;99.90;;;;;;5030605;28;20264;-76
2022/09/22 03:14:34;;;;;;;4.23;2.47;;;10.90;99.90;;;;;;5031919;28;20532;-77
2022/09/22 03:17:00;;;;;;;3.13;1.80;;;10.80;99.90;;;;;;5031949;28;20180;-77
2022/09/22 03:19:26;;;;;;;2.63;1.85;;;10.80;99.90;;;;;;5013608;28;20280;-77
2022/09/22 03:21:52;;;;;;;3.07;1.93;;;10.80;99.90;;;;;;5031787;28;20173;-76
2022/09/22 03:24:18;;;;;;;3.47;1.90;;;10.80;99.90;;;;;;5031574;28;20572;-76
2022/09/22 03:26:44;;;;;;;3.10;1.90;;;10.80;99.90;;;;;;5031870;28;20165;-76
2022/09/22 03:29:09;;;;;;;3.17;1.83;;;10.70;99.90;;;;;;5031740;28;20272;-77
2022/09/22 03:31:35;;;;;;;4.60;1.80;;;10.70;99.90;;;;;;5031817;28;20718;-76
2022/09/22 03:34:01;;;;;;;3.70;2.27;;;10.70;99.90;;;;;;5031722;28;20177;-77
2022/09/22 03:36:27;;;;;;;5.13;1.57;;;10.70;99.90;;;;;;5031758;28;20169;-76
2022/09/22 03:38:53;;;;;;;2.95;1.67;;;10.70;99.90;;;;;;5031412;28;20189;-76
2022/09/22 03:41:19;;;;;;;3.60;2.20;;;10.70;99.90;;;;;;5031472;28;20165;-76
2022/09/22 03:43:45;;;;;;;3.25;1.98;;;10.70;99.90;;;;;;5031764;28;20215;-77
2022/09/22 03:46:12;;;;;;;3.33;2.00;;;10.60;99.90;;;;;;5031593;28;20177;-76
2022/09/22 03:48:38;;;;;;;4.40;2.10;;;10.70;99.90;;;;;;5031442;28;20189;-77
2022/09/22 03:51:04;;;;;;;3.13;2.03;;;10.70;99.90;;;;;;5031318;28;20617;-76
2022/09/22 03:53:29;;;;;;;5.10;2.50;;;10.60;99.90;;;;;;5031379;28;20166;-76
2022/09/22 03:56:13;;;;;;;4.93;2.23;;;10.60;99.90;;;;;;5031583;28;20916;-76
2022/09/22 03:58:39;;;;;;;5.32;1.75;;;10.60;99.90;;;;;;5031362;28;20189;-76
2022/09/22 04:01:07;;;;;;;3.05;1.50;;;10.60;99.90;;;;;;5037054;28;20190;-76
2022/09/22 04:03:36;;;;;;;4.60;1.67;;;10.60;99.90;;;;;;5030265;28;20173;-76
2022/09/22 04:06:03;;;;;;;3.60;1.75;;;10.60;99.90;;;;;;5031451;28;20158;-76
2022/09/22 04:08:28;;;;;;;2.85;1.55;;;10.60;99.90;;;;;;5031311;28;20196;-76
2022/09/22 04:10:56;;;;;;;3.03;2.40;;;10.60;99.90;;;;;;5031001;28;20169;-76
2022/09/22 04:13:22;;;;;;;5.55;1.77;;;10.60;99.90;;;;;;5031289;28;20564;-76
2022/09/22 04:15:48;;;;;;;2.65;1.92;;;10.60;99.90;;;;;;5031301;28;20191;-76
2022/09/22 04:18:14;;;;;;;3.23;2.23;;;10.60;99.90;;;;;;5031791;28;20205;-76
2022/09/22 04:20:44;;;;;;;4.72;2.15;;;10.60;99.90;;;;;;5034716;28;20285;-77
2022/09/22 04:23:14;;;;;;;4.85;1.77;;;10.60;99.90;;;;;;5033887;28;20260;-77
2022/09/22 04:25:40;;;;;;;8.35;2.20;;;10.60;99.90;;;;;;5034971;28;20209;-76
2022/09/22 04:28:07;;;;;;;3.22;2.25;;;10.60;99.90;;;;;;5033663;28;20634;-76
2022/09/22 04:30:33;;;;;;;4.70;2.05;;;10.60;99.90;;;;;;5034768;28;20249;-76
2022/09/22 04:32:59;;;;;;;5.03;2.45;;;10.60;99.90;;;;;;5034887;28;20176;-76
2022/09/22 04:35:27;;;;;;;2.88;1.92;;;10.60;99.90;;;;;;5035006;28;20329;-77
2022/09/22 04:37:54;;;;;;;4.82;2.17;;;10.50;99.90;;;;;;5044570;28;20189;-76
2022/09/22 04:40:21;;;;;;;2.33;1.52;;;10.50;99.90;;;;;;5034616;28;20564;-76
2022/09/22 04:42:46;;;;;;;2.25;1.55;;;10.50;99.90;;;;;;5034773;28;20172;-76
2022/09/22 04:45:13;;;;;;;3.60;2.70;;;10.50;99.90;;;;;;5034804;28;20173;-76
2022/09/22 04:47:40;;;;;;;4.30;2.20;;;10.50;99.90;;;;;;5034605;28;20165;-76
2022/09/22 04:50:06;;;;;;;2.90;2.30;;;10.50;99.90;;;;;;5034212;28;20201;-76
2022/09/22 04:52:31;;;;;;;4.70;3.42;;;10.50;99.90;;;;;;5034443;28;20170;-77
2022/09/22 04:54:57;;;;;;;2.40;1.87;;;10.50;99.90;;;;;;5034427;28;20173;-76
2022/09/22 04:57:23;;;;;;;4.30;2.20;;;10.50;99.90;;;;;;5034481;28;20545;-76
2022/09/22 04:59:49;;;;;;;2.40;1.40;;;10.50;99.90;;;;;;5034081;28;20209;-77
2022/09/22 05:02:14;;;;;;;3.30;1.83;;;10.40;99.90;;;;;;5034320;28;21037;-76
2022/09/22 05:04:40;;;;;;;3.73;1.90;;;10.40;99.90;;;;;;5034247;28;20162;-76
2022/09/22 05:07:06;;;;;;;5.07;1.97;;;10.50;99.90;;;;;;5034309;28;20174;-77
2022/09/22 05:09:32;;;;;;;2.33;1.37;;;10.50;99.90;;;;;;5033931;28;20220;-76
2022/09/22 05:12:00;;;;;;;3.83;1.53;;;10.50;99.90;;;;;;5034327;28;20174;-77
2022/09/22 05:14:28;;;;;;;4.43;2.00;;;10.50;99.90;;;;;;5041226;28;20584;-76
2022/09/22 05:16:54;;;;;;;4.78;2.10;;;10.50;99.90;;;;;;5035610;28;20166;-76
2022/09/22 05:19:20;;;;;;;4.90;2.17;;;10.50;99.90;;;;;;5033650;28;20201;-76
2022/09/22 05:21:46;;;;;;;3.83;1.88;;;10.50;99.90;;;;;;5033910;28;20567;-76
2022/09/22 05:24:12;;;;;;;4.33;2.00;;;10.50;99.90;;;;;;5032807;28;20638;-77
2022/09/22 05:26:37;;;;;;;3.13;2.00;;;10.50;99.90;;;;;;5034076;28;20170;-76
2022/09/22 05:29:05;;;;;;;2.43;1.63;;;10.50;99.90;;;;;;5032695;28;20182;-77
2022/09/22 05:31:31;;;;;;;3.30;1.83;;;10.50;99.90;;;;;;5032524;28;20170;-77
2022/09/22 05:33:57;;;;;;;5.00;1.83;;;10.50;99.90;;;;;;5033811;28;20505;-77
2022/09/22 05:36:23;;;;;;;2.60;1.80;;;10.50;99.90;;;;;;5033915;28;20216;-76
2022/09/22 05:38:49;;;;;;;4.43;2.70;;;10.60;99.90;;;;;;5033620;28;20249;-76
2022/09/22 05:41:15;;;;;;;3.57;1.73;;;10.60;99.90;;;;;;5033237;28;20610;-77
2022/09/22 05:43:40;;;;;;;2.93;1.83;;;10.60;99.90;;;;;;5033633;28;20169;-76
2022/09/22 05:46:06;;;;;;;3.70;1.93;;;10.60;99.90;;;;;;5033676;28;20161;-76
2022/09/22 05:48:32;;;;;;;3.77;1.83;;;10.60;99.90;;;;;;5031986;28;20228;-76
2022/09/22 05:50:57;;;;;;;6.73;2.43;;;10.60;99.90;;;;;;5033465;28;20209;-77
2022/09/22 05:53:23;;;;;;;3.13;1.60;;;10.60;99.90;;;;;;5037771;28;20264;-76
2022/09/22 05:55:49;;;;;;;3.20;2.17;;;10.60;99.90;;;;;;5033633;28;20584;-76
2022/09/22 05:58:15;;;;;;;3.40;1.70;;;10.60;99.90;;;;;;5033310;28;20597;-77
2022/09/22 06:00:40;;;;;;;4.40;2.30;;;10.70;99.90;;;;;;5033135;28;20575;-77
2022/09/22 06:03:07;;;;;;;8.10;2.60;;;10.70;99.90;;;;;;5033183;28;20181;-77
2022/09/22 06:05:32;;;;;;;4.65;2.03;;;10.70;99.90;;;;;;5033189;28;21020;-77
2022/09/22 06:08:02;;;;;;;2.93;2.63;;;10.70;99.90;;;;;;5033248;28;20205;-77
2022/09/22 06:10:33;;;;;;;4.20;1.65;;;10.80;99.90;;;;;;5031836;28;20184;-76
2022/09/22 06:13:04;;;;;;;4.82;2.15;;;10.80;99.90;;;;;;5031952;28;20589;-77
2022/09/22 06:15:32;;;;;;;3.78;1.83;;;10.80;99.90;;;;;;5033194;28;20208;-77
2022/09/22 06:17:59;;;;;;;3.60;2.10;;;10.80;99.90;;;;;;5032949;28;20166;-77
2022/09/22 06:20:26;;;;;;;4.85;2.47;;;10.80;99.90;;;;;;5032780;28;20212;-77
2022/09/22 06:22:52;;;;;;;4.30;1.80;;;10.80;99.90;;;;;;5033018;28;20201;-77
2022/09/22 06:25:18;;;;;;;5.15;1.70;;;10.90;99.90;;;;;;5032920;28;20252;-77
2022/09/22 06:27:44;;;;;;;3.67;2.10;;;11.00;99.90;;;;;;5033065;28;20724;-77
2022/09/22 06:30:11;;;;;;;3.95;1.60;;;11.00;99.90;;;;;;5037527;28;20320;-77
2022/09/22 06:32:42;;;;;;;6.60;1.98;;;11.00;99.90;;;;;;5032694;28;20178;-77
2022/09/22 06:35:08;;;;;;;3.67;1.90;;;11.10;99.90;;;;;;5032873;28;20243;-77
2022/09/22 06:37:37;;;;;;;3.43;1.90;;;11.20;99.90;;;;;;5031399;28;20213;-77
2022/09/22 06:40:06;;;;;;;3.50;2.00;;;11.20;99.90;;;;;;5032310;28;20628;-77
2022/09/22 06:42:32;;;;;;;4.80;2.42;;;11.30;99.90;;;;;;5031218;28;20177;-76
2022/09/22 06:44:59;;;;;;;8.53;1.90;;;11.40;99.90;;;;;;5032642;28;20236;-77
2022/09/22 06:47:25;;;;;;;3.33;1.73;;;11.40;99.90;;;;;;5032660;28;20565;-76
2022/09/22 06:49:51;;;;;;;4.35;2.30;;;11.50;99.90;;;;;;5032620;28;20619;-74
2022/09/22 06:52:16;;;;;;;5.50;2.70;;;11.60;99.90;;;;;;5032314;28;20166;-74
2022/09/22 06:54:42;;;;;;;3.07;1.70;;;11.70;99.90;;;;;;5014643;28;20205;-74
2022/09/22 06:57:11;;;;;;;5.10;1.87;;;11.80;99.90;;;;;;5032352;28;20173;-74
2022/09/22 06:59:37;;;;;;;5.90;2.15;;;11.90;99.90;;;;;;5030530;28;20627;-74
2022/09/22 07:02:06;;;;;;;3.40;2.40;;;12.00;99.90;;;;;;5031004;28;20243;-74
2022/09/22 07:04:33;;;;;;;3.65;2.00;;;12.10;99.90;;;;;;5030905;28;20236;-74
2022/09/22 07:06:59;;;;;;;3.17;2.10;;;12.20;99.90;;;;;;5036484;28;20523;-74
2022/09/22 07:09:25;;;;;;;3.78;2.20;;;12.40;99.90;;;;;;5031706;28;20574;-74
2022/09/22 07:11:52;;;;;;;2.90;1.70;;;12.50;99.90;;;;;;5031997;28;20570;-74
2022/09/22 07:14:21;;;;;;;6.05;1.80;;;12.60;99.90;;;;;;5031909;28;20227;-74
2022/09/22 07:16:47;;;;;;;6.40;1.77;;;12.70;99.90;;;;;;5030768;28;20177;-74
2022/09/22 07:19:14;;;;;;;3.00;1.80;;;13.10;99.90;;;;;;5030226;28;20197;-74
2022/09/22 07:21:39;;;;;;;2.42;1.75;;;13.60;99.90;;;;;;5031710;28;20166;-74
2022/09/22 07:24:08;;;;;;;3.60;1.70;;;14.20;99.90;;;;;;5031907;28;20199;-74
2022/09/22 07:26:37;;;;;;;4.43;1.83;;;14.90;99.90;;;;;;5031727;28;20162;-74
2022/09/22 07:29:06;;;;;;;5.80;1.40;;;15.80;99.90;;;;;;5031708;28;20599;-75
2022/09/22 07:31:33;;;;;;;3.00;1.20;;;16.70;99.90;;;;;;5031426;28;20564;-75
2022/09/22 07:33:59;;;;;;;3.07;1.30;;;17.70;99.90;;;;;;5030598;28;20565;-75
2022/09/22 07:36:28;;;;;;;4.30;1.50;;;18.60;99.90;;;;;;5030417;28;20564;-75
2022/09/22 07:38:56;;;;;;;2.70;1.77;;;19.40;99.90;;;;;;5030377;28;20605;-75
2022/09/22 07:41:26;;;;;;;2.63;1.57;;;20.20;99.90;;;;;;5031425;28;20829;-75
2022/09/22 07:43:55;;;;;;;2.87;1.20;;;20.70;99.90;;;;;;5032735;28;20584;-75
2022/09/22 07:46:21;;;;;;;2.90;1.10;;;21.10;99.90;;;;;;5031724;28;20587;-75
2022/09/22 07:48:47;;;;;;;4.07;1.30;;;21.60;99.90;;;;;;5031347;28;20623;-75
2022/09/22 07:51:20;;;;;;;3.70;1.40;;;21.80;99.90;;;;;;5013237;28;20587;-75
2022/09/22 07:53:49;;;;;;;2.70;1.17;;;22.10;99.90;;;;;;5031139;28;20671;-75
2022/09/22 07:56:19;;;;;;;3.20;1.47;;;22.40;99.90;;;;;;5030221;28;20572;-75
2022/09/22 07:58:50;;;;;;;3.23;1.27;;;22.90;99.90;;;;;;5029950;28;20619;-75
2022/09/22 08:01:18;;;;;;;2.83;1.43;;;23.70;99.90;;;;;;5030890;28;20624;-75
2022/09/22 08:03:45;;;;;;;2.03;1.17;;;24.50;99.90;;;;;;5031416;28;20663;-75
2022/09/22 08:06:11;;;;;;;2.43;1.40;;;25.10;99.50;;;;;;5031304;28;20564;-75
2022/09/22 08:08:42;;;;;;;2.83;1.60;;;25.60;96.70;;;;;;5031155;28;20596;-75
2022/09/22 08:11:14;;;;;;;4.20;1.40;;;26.20;95.40;;;;;;5031077;28;20679;-75
2022/09/22 08:13:42;;;;;;;2.77;1.10;;;26.80;95.30;;;;;;5031265;28;20600;-75
2022/09/22 08:16:10;;;;;;;3.03;1.30;;;26.90;92.50;;;;;;5031336;28;20600;-75
2022/09/22 08:18:36;;;;;;;2.73;1.53;;;27.00;91.30;;;;;;5031243;28;20607;-75
2022/09/22 08:21:03;;;;;;;2.80;1.37;;;27.30;90.30;;;;;;5031918;28;20655;-75
2022/09/22 08:23:30;;;;;;;3.10;1.27;;;27.50;88.70;;;;;;5031193;28;20557;-75
2022/09/22 08:26:01;;;;;;;1.80;1.10;;;27.80;87.30;;;;;;5031177;28;20575;-75
2022/09/22 08:28:27;;;;;;;3.63;1.20;;;27.80;84.50;;;;;;5031226;28;20595;-75
2022/09/22 08:30:53;;;;;;;2.43;1.20;;;28.10;83.90;;;;;;5031036;28;20564;-74
2022/09/22 08:33:19;;;;;;;3.87;1.60;;;28.40;81.20;;;;;;5031062;28;20223;-75
2022/09/22 08:35:57;;;;;;;2.50;1.10;;;28.70;80.30;;;;;;5031079;28;20561;-75
2022/09/22 08:38:24;;;;;;;2.43;1.20;;;29.10;77.20;;;;;;5031044;28;20196;-74
2022/09/22 08:41:08;;;;;;;2.30;1.10;;;29.40;76.20;;;;;;5030599;28;20615;-74
2022/09/22 08:43:33;;;;;;;2.30;1.10;;;29.60;73.60;;;;;;5013212;28;20633;-75
2022/09/22 08:46:02;;;;;;;1.90;1.10;;;29.90;70.50;;;;;;5031348;28;20576;-74
2022/09/22 08:51:52;;;;;;;2.70;1.20;;;29.80;67.40;;;;;;5030803;28;20656;-74
2022/09/22 08:54:25;;;;;;;2.10;1.30;;;30.10;65.90;;;;;;5013534;28;20564;-74
2022/09/22 08:56:56;;;;;;;2.93;1.20;;;30.60;62.70;;;;;;5031744;28;20606;-74
2022/09/22 08:59:28;;;;;;;2.20;0.97;;;31.00;62.50;;;;;;5031075;28;20621;-75
2022/09/22 09:02:18;;;;;;;2.53;1.07;;;31.40;62.20;;;;;;5031013;28;20657;-74
2022/09/22 09:05:05;;;;;;;3.53;0.93;;;31.50;59.40;;;;;;5031324;28;21070;-74
2022/09/22 09:07:51;;;;;;;3.57;1.00;;;31.40;58.30;;;;;;5034629;28;20625;-74
2022/09/22 09:10:33;;;;;;;2.07;1.20;;;31.60;58.60;;;;;;5034256;28;20570;-74
2022/09/22 09:13:21;;;;;;;2.00;1.07;;;31.70;58.50;;;;;;5034537;28;20628;-74
2022/09/22 09:16:04;;;;;;;2.33;0.90;;;31.80;56.60;;;;;;5034612;28;20912;-74
2022/09/22 09:18:38;;;;;;;2.83;0.97;;;31.50;53.20;;;;;;5034222;28;20603;-74
2022/09/22 09:21:11;;;;;;;1.97;0.90;;;31.50;53.40;;;;;;5032725;28;20621;-74
2022/09/22 09:23:45;;;;;;;2.63;1.07;;;31.70;54.80;;;;;;5034419;28;20566;-74
2022/09/22 09:26:13;;;;;;;1.70;0.90;;;31.90;53.80;;;;;;5032893;28;20611;-74
2022/09/22 09:28:54;;;;;;;2.40;0.83;;;31.90;53.00;;;;;;5033887;28;20593;-74
2022/09/22 09:31:27;;;;;;;2.73;0.90;;;31.90;52.60;;;;;;5032365;28;20571;-75
2022/09/22 09:34:13;;;;;;;2.40;0.90;;;32.20;52.60;;;;;;5035778;28;20613;-75
2022/09/22 09:36:42;;;;;;;1.50;0.70;;;32.10;51.50;;;;;;5034095;28;20586;-74
2022/09/22 09:39:39;;;;;;;3.10;0.90;;;32.40;52.50;;;;;;5033595;28;20693;-74
2022/09/22 09:42:18;;;;;;;3.63;0.90;;;32.50;51.90;;;;;;5028845;28;20680;-75
2022/09/22 09:44:46;;;;;;;1.50;0.80;;;32.40;50.30;;;;;;5033944;28;20568;-75
2022/09/22 09:47:35;;;;;;;2.37;0.90;;;32.40;49.50;;;;;;5033787;28;20936;-74
2022/09/22 09:50:02;;;;;;;1.73;0.80;;;32.20;48.30;;;;;;5022578;28;20646;-75
2022/09/22 09:52:29;;;;;;;2.83;1.47;;;32.40;49.00;;;;;;5033326;28;20582;-73
2022/09/22 09:54:55;;;;;;;2.33;0.80;;;32.20;47.70;;;;;;5015659;28;20648;-74
2022/09/22 09:57:21;;;;;;;2.33;0.80;;;32.10;48.90;;;;;;5033390;28;20587;-74
2022/09/22 10:03:17;;;;;;;2.13;0.70;;;32.40;47.90;;;;;;5033182;28;20573;-75
2022/09/22 10:05:54;;;;;;;1.53;0.77;;;32.40;45.00;;;;;;5033469;28;20905;-74
2022/09/22 10:08:23;;;;;;;3.53;0.83;;;32.60;47.00;;;;;;5031949;28;20728;-74
2022/09/22 10:10:56;;;;;;;1.60;0.80;;;32.60;47.00;;;;;;5033304;28;21143;-74
2022/09/22 10:13:31;;;;;;;5.13;0.73;;;32.70;46.40;;;;;;5031955;28;20982;-74
2022/09/22 10:16:20;;;;;;;1.70;0.60;;;32.70;43.40;;;;;;5032690;28;21148;-75
2022/09/22 10:18:48;;;;;;;1.83;0.70;;;32.60;45.20;;;;;;5032984;28;20637;-74
2022/09/22 10:21:20;;;;;;;2.80;0.80;;;32.70;45.20;;;;;;5032588;28;21021;-74
2022/09/22 10:23:49;;;;;;;3.00;1.00;;;32.60;43.50;;;;;;5032799;28;20577;-75
2022/09/22 10:26:33;;;;;;;1.70;0.83;;;32.30;44.20;;;;;;5032885;28;20628;-75
2022/09/22 10:29:18;;;;;;;3.67;0.80;;;32.00;44.60;;;;;;5032737;28;20642;-74
2022/09/22 10:32:22;;;;;;;1.80;0.60;;;31.50;38.30;;;;;;5031606;28;20563;-74
2022/09/22 10:34:50;;;;;;;1.40;0.70;;;31.00;41.40;;;;;;4993965;28;20638;-74
2022/09/22 10:37:24;;;;;;;1.53;0.90;;;30.50;42.50;;;;;;4994256;28;20671;-74
2022/09/22 10:39:52;;;;;;;1.60;0.70;;;30.40;43.60;;;;;;5021813;28;20654;-74
2022/09/22 10:42:33;;;;;;;2.07;1.00;;;30.40;43.20;;;;;;5032423;28;20568;-74
2022/09/22 10:45:21;;;;;;;1.70;0.80;;;30.30;43.00;;;;;;5032643;28;20970;-74
2022/09/22 10:47:55;;;;;;;1.97;0.70;;;30.20;43.10;;;;;;5033587;28;20877;-74
2022/09/22 10:50:50;;;;;;;1.60;0.77;;;30.10;43.50;;;;;;5031738;28;20624;-73
2022/09/22 10:53:46;;;;;;;1.60;0.80;;;30.10;40.90;;;;;;5032352;28;20568;-74
2022/09/22 10:56:25;;;;;;;2.27;0.80;;;29.90;43.20;;;;;;5032247;28;21175;-73
2022/09/22 10:59:15;;;;;;;1.50;0.70;;;30.00;43.60;;;;;;5032040;28;20924;-74
2022/09/22 11:02:17;;;;;;;1.80;0.70;;;30.00;43.30;;;;;;5031994;28;20953;-74
2022/09/22 11:05:01;;;;;;;1.20;0.60;;;30.10;40.50;;;;;;5032161;28;21164;-74
2022/09/22 11:13:52;;;;;;;2.37;0.73;;;30.40;41.70;;;;;;5032032;28;20564;-74
2022/09/22 11:16:30;;;;;;;1.70;0.70;;;29.80;40.50;;;;;;5031899;28;20567;-73
2022/09/22 11:19:02;;;;;;;1.93;0.73;;;29.30;39.10;;;;;;5031853;28;20651;-74
2022/09/22 11:21:44;;;;;;;2.47;0.80;;;28.90;41.30;;;;;;5031632;28;20619;-74
2022/09/22 11:24:25;;;;;;;1.40;0.70;;;28.50;40.10;;;;;;5031889;28;20564;-74
2022/09/22 11:26:55;;;;;;;1.50;0.70;;;28.00;39.60;;;;;;5034479;28;20579;-74
2022/09/22 11:29:55;;;;;;;1.30;0.60;;;27.80;41.00;;;;;;5030826;28;20585;-74
2022/09/22 11:32:47;;;;;;;9.47;1.93;;;27.70;41.90;;;;;;5031593;28;20614;-74
2022/09/22 11:35:13;;;;;;;1.50;0.60;;;27.90;42.50;;;;;;5031816;28;20553;-74
2022/09/22 11:37:54;;;;;;;1.50;0.77;;;28.10;42.60;;;;;;5031644;28;20557;-74
2022/09/22 11:40:43;;;;;;;1.77;0.70;;;28.00;41.00;;;;;;5031437;28;20193;-74
2022/09/22 11:43:27;;;;;;;1.93;0.80;;;27.80;41.00;;;;;;5031236;28;20922;-74
2022/09/22 11:45:59;;;;;;;2.03;0.77;;;27.40;39.70;;;;;;5030375;28;20575;-74
2022/09/22 11:48:49;;;;;;;1.80;0.60;;;27.20;41.10;;;;;;5031430;28;20624;-74
2022/09/22 11:51:21;;;;;;;2.00;0.70;;;27.20;42.20;;;;;;5029912;28;20616;-74
2022/09/22 11:53:49;;;;;;;3.03;1.27;;;27.30;41.70;;;;;;5031542;28;20564;-74
2022/09/22 11:56:48;;;;;;;2.37;1.33;;;27.20;41.60;;;;;;5031484;28;20618;-74
2022/09/22 11:59:44;;;;;;;2.23;0.77;;;27.10;40.50;;;;;;5031120;28;20897;-74
2022/09/22 12:02:49;;;;;;;1.80;1.00;;;26.80;41.20;;;;;;5032974;28;20571;-74
2022/09/22 12:05:20;;;;;;;1.53;0.70;;;26.70;40.10;;;;;;5031485;28;20618;-74
2022/09/22 12:07:58;;;;;;;1.77;0.63;;;26.60;41.00;;;;;;5031528;28;20627;-75
2022/09/22 12:10:39;;;;;;;1.77;0.50;;;26.60;40.70;;;;;;5031282;28;20580;-74
2022/09/22 12:13:15;;;;;;;2.40;0.70;;;26.40;40.40;;;;;;5031351;28;21143;-73
2022/09/22 12:16:07;;;;;;;3.97;0.67;;;26.20;39.80;;;;;;5030017;28;20587;-74
2022/09/22 12:18:51;;;;;;;1.40;0.70;;;25.90;39.60;;;;;;5031060;28;20662;-74
2022/09/22 12:21:33;;;;;;;2.17;0.73;;;25.70;40.70;;;;;;5030943;28;20611;-74
2022/09/22 12:24:02;;;;;;;1.40;0.70;;;25.60;40.90;;;;;;5031187;28;21132;-74
2022/09/22 12:26:32;;;;;;;1.90;0.70;;;25.50;40.70;;;;;;5030076;28;21156;-74
2022/09/22 12:29:01;;;;;;;1.30;0.60;;;25.30;40.80;;;;;;5031192;28;20974;-74
2022/09/22 12:31:41;;;;;;;1.40;0.50;;;25.30;40.90;;;;;;5031045;28;20627;-74
2022/09/22 12:34:21;;;;;;;2.13;0.60;;;25.20;41.10;;;;;;5031346;28;20603;-73
2022/09/22 12:36:52;;;;;;;1.70;0.60;;;25.30;41.50;;;;;;5031293;28;20659;-74
2022/09/22 12:39:21;;;;;;;1.63;0.50;;;25.30;41.00;;;;;;5034619;28;20596;-74
2022/09/22 12:41:56;;;;;;;1.40;0.50;;;25.10;40.80;;;;;;5034652;28;20572;-74
2022/09/22 12:44:36;;;;;;;1.20;0.47;;;25.10;40.80;;;;;;5034971;28;20576;-74
2022/09/22 12:47:17;;;;;;;1.50;0.50;;;25.00;40.70;;;;;;5033497;28;20580;-75
2022/09/22 12:49:56;;;;;;;1.60;0.70;;;24.90;40.10;;;;;;5034852;28;21245;-74
2022/09/22 12:52:40;;;;;;;1.50;0.50;;;24.80;40.10;;;;;;5034640;28;20575;-73
2022/09/22 12:55:27;;;;;;;1.67;0.60;;;24.60;38.40;;;;;;5034680;28;20564;-74
2022/09/22 12:58:00;;;;;;;1.50;0.63;;;24.50;39.60;;;;;;5034555;28;20568;-73
2022/09/22 13:00:40;;;;;;;2.03;0.60;;;24.30;40.00;;;;;;5034576;28;20619;-73
2022/09/22 13:03:24;;;;;;;1.40;0.50;;;24.30;40.00;;;;;;5034544;28;20568;-73
2022/09/22 13:05:51;;;;;;;3.10;0.80;;;24.20;40.00;;;;;;5034555;28;20954;-74
2022/09/22 13:08:41;;;;;;;2.90;0.70;;;24.10;39.50;;;;;;5034510;28;20595;-76
2022/09/22 13:11:08;;;;;;;2.27;0.60;;;23.80;39.00;;;;;;5034251;28;20596;-76
2022/09/22 13:13:38;;;;;;;4.80;0.60;;;23.50;38.80;;;;;;5034449;28;21135;-76
2022/09/22 13:16:24;;;;;;;2.50;0.50;;;23.20;38.80;;;;;;5037185;28;20595;-76
2022/09/22 13:18:53;;;;;;;3.60;0.53;;;22.90;39.30;;;;;;5034191;28;20604;-76
2022/09/22 13:21:27;;;;;;;1.40;0.60;;;22.70;39.50;;;;;;5034030;28;20616;-76
2022/09/22 13:23:52;;;;;;;1.67;0.60;;;22.60;39.70;;;;;;5016700;28;20572;-77
2022/09/22 13:26:31;;;;;;;1.77;0.63;;;22.20;40.00;;;;;;5034202;28;20951;-76